Time;durP1;ratioP1;P1;durP2;ratioP2;P2;SDS_P1;SDS_P2;PMS_P1;PMS_P2;Temp;Humidity;BMP_temperature;BMP_pressure;BME280_temperature;BME280_humidity;BME280_pressure;Samples;Min_cycle;Max_cycle;Signal;HPM_P1;HPM_P2
2024/03/09 00:00:21;;;;;;;34.97;18.57;;;5.00;99.90;;;;;;5013866;28;20516;-81
2024/03/09 00:02:50;;;;;;;35.83;18.50;;;5.00;99.90;;;;;;5013777;28;20468;-81
2024/03/09 00:05:21;;;;;;;38.80;20.00;;;5.00;99.90;;;;;;5014040;28;20485;-82
2024/03/09 00:07:49;;;;;;;43.37;18.80;;;5.00;99.90;;;;;;5009818;28;20458;-82
2024/03/09 00:10:16;;;;;;;35.67;18.97;;;4.90;99.90;;;;;;5014175;28;20985;-82
2024/03/09 00:12:47;;;;;;;34.30;17.63;;;4.90;99.90;;;;;;5014282;28;20636;-82
2024/03/09 00:15:15;;;;;;;34.47;17.33;;;4.90;99.90;;;;;;5014063;28;20487;-82
2024/03/09 00:17:42;;;;;;;35.33;18.47;;;4.90;99.90;;;;;;5013355;28;20465;-82
2024/03/09 00:20:12;;;;;;;36.33;19.67;;;4.80;99.90;;;;;;4994375;28;20493;-83
2024/03/09 00:22:45;;;;;;;32.77;18.40;;;4.80;99.90;;;;;;4994301;28;20459;-82
2024/03/09 00:25:22;;;;;;;35.73;18.60;;;4.90;99.90;;;;;;4994432;28;20496;-83
2024/03/09 00:27:58;;;;;;;37.03;19.07;;;4.80;99.90;;;;;;5004238;28;20493;-82
2024/03/09 00:30:38;;;;;;;36.73;19.67;;;4.80;99.90;;;;;;4994293;28;20453;-82
2024/03/09 00:33:08;;;;;;;32.97;16.70;;;4.80;99.90;;;;;;5002084;28;20523;-82
2024/03/09 00:35:36;;;;;;;33.93;17.53;;;4.70;99.90;;;;;;4994026;28;20485;-82
2024/03/09 00:38:04;;;;;;;37.80;20.63;;;4.70;99.90;;;;;;5003907;28;20542;-82
2024/03/09 00:40:34;;;;;;;33.10;18.47;;;4.70;99.90;;;;;;4994031;28;20497;-80
2024/03/09 00:43:05;;;;;;;35.73;17.53;;;4.70;99.90;;;;;;4994003;28;20459;-83
2024/03/09 00:45:32;;;;;;;38.20;19.40;;;4.60;99.90;;;;;;4993792;28;20484;-82
2024/03/09 00:47:59;;;;;;;33.27;17.23;;;4.60;99.90;;;;;;5002176;28;21003;-82
2024/03/09 00:50:26;;;;;;;29.87;16.17;;;4.60;99.90;;;;;;4991974;28;20947;-82
2024/03/09 00:52:53;;;;;;;34.20;18.17;;;4.60;99.90;;;;;;4993180;28;20886;-81
2024/03/09 00:55:22;;;;;;;28.80;15.30;;;4.50;99.90;;;;;;4993221;28;20495;-82
2024/03/09 00:57:50;;;;;;;33.07;19.13;;;4.50;99.90;;;;;;5002982;28;20464;-82
2024/03/09 01:00:18;;;;;;;37.30;18.63;;;4.40;99.90;;;;;;5003151;28;20550;-82
2024/03/09 01:02:47;;;;;;;43.47;19.60;;;4.40;99.90;;;;;;4993602;28;20465;-82
2024/03/09 01:05:15;;;;;;;32.93;17.90;;;4.40;99.90;;;;;;4993789;28;20490;-83
2024/03/09 01:07:42;;;;;;;32.03;16.90;;;4.40;99.90;;;;;;5002753;28;20468;-81
2024/03/09 01:10:10;;;;;;;30.40;18.03;;;4.30;99.90;;;;;;4993785;28;20477;-82
2024/03/09 01:12:39;;;;;;;33.70;17.23;;;4.30;99.90;;;;;;4993014;28;20457;-82
2024/03/09 01:15:10;;;;;;;33.13;18.50;;;4.20;99.90;;;;;;5005579;28;20493;-81
2024/03/09 01:17:37;;;;;;;29.33;16.80;;;4.20;99.90;;;;;;5009334;28;20464;-81
2024/03/09 01:20:06;;;;;;;33.80;19.17;;;4.20;99.90;;;;;;5005376;28;20497;-82
2024/03/09 01:22:33;;;;;;;38.50;18.47;;;4.20;99.90;;;;;;5013376;28;20518;-83
2024/03/09 01:25:00;;;;;;;39.43;18.77;;;4.20;99.90;;;;;;5013363;28;20494;-82
2024/03/09 01:27:27;;;;;;;39.40;19.50;;;4.20;99.90;;;;;;5014034;28;20816;-82
2024/03/09 01:29:59;;;;;;;42.10;19.60;;;4.20;99.90;;;;;;5010923;28;20954;-82
2024/03/09 01:32:27;;;;;;;35.63;19.10;;;4.20;99.90;;;;;;4993348;28;20485;-82
2024/03/09 01:34:54;;;;;;;33.47;18.40;;;4.20;99.90;;;;;;4993303;28;20485;-82
2024/03/09 01:37:22;;;;;;;33.17;17.73;;;4.10;99.90;;;;;;4999767;28;20538;-82
2024/03/09 01:39:48;;;;;;;36.00;16.83;;;4.10;99.90;;;;;;4994720;28;20578;-82
2024/03/09 01:42:18;;;;;;;33.30;16.93;;;4.10;99.90;;;;;;4992629;28;20468;-82
2024/03/09 01:44:47;;;;;;;37.03;19.53;;;4.10;99.90;;;;;;4993396;28;20535;-82
2024/03/09 01:47:18;;;;;;;30.00;16.37;;;4.10;99.90;;;;;;4998506;28;20862;-82
2024/03/09 01:49:45;;;;;;;35.17;17.87;;;4.00;99.90;;;;;;5012345;28;20457;-82
2024/03/09 01:52:13;;;;;;;36.67;19.47;;;4.00;99.90;;;;;;4993298;28;20465;-82
2024/03/09 01:54:42;;;;;;;35.40;16.30;;;4.00;99.90;;;;;;5001482;28;20483;-82
2024/03/09 01:57:09;;;;;;;30.40;16.90;;;4.00;99.90;;;;;;5004688;28;20960;-82
2024/03/09 01:59:38;;;;;;;34.87;18.77;;;4.00;99.90;;;;;;5004486;28;20548;-82
2024/03/09 02:02:06;;;;;;;31.47;16.63;;;4.00;99.90;;;;;;5005089;28;20551;-83
2024/03/09 02:04:36;;;;;;;33.23;18.43;;;4.00;99.90;;;;;;5012739;28;20486;-82
2024/03/09 02:07:06;;;;;;;30.23;16.17;;;4.00;99.90;;;;;;5012353;28;20881;-82
2024/03/09 02:09:34;;;;;;;32.53;17.57;;;4.00;99.90;;;;;;5005737;28;20522;-83
2024/03/09 02:12:06;;;;;;;33.93;19.63;;;4.00;99.90;;;;;;4993284;28;20469;-82
2024/03/09 02:14:36;;;;;;;35.63;17.40;;;4.00;99.90;;;;;;4997130;28;20505;-83
2024/03/09 02:17:08;;;;;;;35.17;17.03;;;4.00;99.90;;;;;;4999505;28;20531;-82
2024/03/09 02:19:39;;;;;;;39.47;20.87;;;4.00;99.90;;;;;;5009217;28;20447;-83
2024/03/09 02:22:10;;;;;;;36.60;17.43;;;3.90;99.90;;;;;;5009045;28;20452;-82
2024/03/09 02:24:42;;;;;;;35.83;17.97;;;3.90;99.90;;;;;;5016986;28;20840;-82
2024/03/09 02:27:10;;;;;;;33.80;18.17;;;3.80;99.90;;;;;;5006446;28;20891;-82
2024/03/09 02:29:38;;;;;;;43.70;19.27;;;3.80;99.90;;;;;;4997090;28;20462;-82
2024/03/09 02:32:06;;;;;;;31.70;17.63;;;3.80;99.90;;;;;;5010850;28;20465;-83
2024/03/09 02:34:33;;;;;;;33.33;17.97;;;3.80;99.90;;;;;;4997355;28;20493;-82
2024/03/09 02:37:00;;;;;;;34.60;17.77;;;3.80;99.90;;;;;;4999091;28;20426;-81
2024/03/09 02:39:27;;;;;;;39.17;17.33;;;3.80;99.90;;;;;;5010880;28;20530;-82
2024/03/09 02:41:58;;;;;;;36.27;19.87;;;3.70;99.90;;;;;;4996582;28;20508;-81
2024/03/09 02:44:26;;;;;;;34.87;17.97;;;3.70;99.90;;;;;;4996660;28;20516;-82
2024/03/09 02:46:53;;;;;;;30.53;17.10;;;3.70;99.90;;;;;;4997075;28;20492;-82
2024/03/09 02:49:20;;;;;;;32.87;18.17;;;3.80;99.90;;;;;;5011078;28;20461;-82
2024/03/09 02:51:47;;;;;;;32.77;16.43;;;3.70;99.90;;;;;;5012889;28;20464;-82
2024/03/09 02:54:17;;;;;;;31.90;17.40;;;3.70;99.90;;;;;;4997236;28;20476;-82
2024/03/09 02:56:46;;;;;;;34.60;19.20;;;3.70;99.90;;;;;;4996759;28;20462;-82
2024/03/09 02:59:16;;;;;;;34.27;18.30;;;3.70;99.90;;;;;;5011402;28;20468;-82
2024/03/09 03:01:46;;;;;;;31.30;16.97;;;3.70;99.90;;;;;;4996231;28;20493;-81
2024/03/09 03:04:12;;;;;;;32.17;17.40;;;3.70;99.90;;;;;;4996460;28;20473;-82
2024/03/09 03:06:41;;;;;;;27.53;16.13;;;3.70;99.90;;;;;;4996221;28;20803;-82
2024/03/09 03:09:12;;;;;;;35.77;18.70;;;3.70;99.90;;;;;;5010310;28;20220;-82
2024/03/09 03:11:40;;;;;;;33.00;18.60;;;3.60;99.90;;;;;;4999467;28;20456;-82
2024/03/09 03:14:07;;;;;;;32.30;16.20;;;3.60;99.90;;;;;;4996162;28;20456;-81
2024/03/09 03:16:35;;;;;;;33.60;17.63;;;3.60;99.90;;;;;;4996318;28;20819;-82
2024/03/09 03:19:06;;;;;;;37.87;20.17;;;3.60;99.90;;;;;;4996921;28;20543;-82
2024/03/09 03:21:39;;;;;;;32.70;17.37;;;3.50;99.90;;;;;;5008873;28;20851;-83
2024/03/09 03:24:09;;;;;;;32.33;17.03;;;3.50;99.90;;;;;;5004037;28;20469;-82
2024/03/09 03:26:36;;;;;;;35.53;18.10;;;3.50;99.90;;;;;;4996141;28;20548;-82
2024/03/09 03:29:03;;;;;;;32.83;18.27;;;3.60;99.90;;;;;;4996876;28;20462;-82
2024/03/09 03:31:30;;;;;;;36.73;17.93;;;3.60;99.90;;;;;;5011159;28;20462;-81
2024/03/09 03:33:58;;;;;;;36.20;18.80;;;3.60;99.90;;;;;;4999990;28;20543;-83
2024/03/09 03:36:29;;;;;;;37.13;17.90;;;3.60;99.90;;;;;;5009359;28;20464;-82
2024/03/09 03:38:56;;;;;;;30.43;17.27;;;3.60;99.90;;;;;;5008415;28;20466;-82
2024/03/09 03:41:23;;;;;;;34.63;17.10;;;3.60;99.90;;;;;;5006229;28;20567;-83
2024/03/09 03:43:50;;;;;;;35.53;17.30;;;3.60;99.90;;;;;;5011095;28;20479;-83
2024/03/09 03:46:17;;;;;;;33.90;16.33;;;3.60;99.90;;;;;;5016400;28;21014;-83
2024/03/09 03:48:45;;;;;;;29.90;15.53;;;3.60;99.90;;;;;;5002112;28;20520;-82
2024/03/09 03:51:13;;;;;;;34.60;17.20;;;3.60;99.90;;;;;;5002134;28;20544;-84
2024/03/09 03:53:41;;;;;;;30.67;17.00;;;3.60;99.90;;;;;;5001793;28;20464;-83
2024/03/09 03:56:13;;;;;;;35.50;18.33;;;3.70;99.90;;;;;;5001009;28;20575;-82
2024/03/09 03:58:41;;;;;;;29.27;15.63;;;3.70;99.90;;;;;;5001847;28;20468;-83
2024/03/09 04:01:08;;;;;;;28.60;16.10;;;3.80;99.90;;;;;;5004913;28;21091;-83
2024/03/09 04:03:38;;;;;;;28.30;15.33;;;3.80;99.90;;;;;;5004990;28;21013;-84
2024/03/09 04:06:06;;;;;;;29.50;15.97;;;3.80;99.90;;;;;;5013807;28;20475;-83
2024/03/09 04:08:33;;;;;;;27.07;16.37;;;3.80;99.90;;;;;;5011391;28;20655;-82
2024/03/09 04:11:01;;;;;;;28.60;15.23;;;3.80;99.90;;;;;;5003564;28;20508;-82
2024/03/09 04:13:28;;;;;;;30.90;16.47;;;3.80;99.90;;;;;;4994905;28;20560;-83
2024/03/09 04:15:57;;;;;;;34.83;16.70;;;3.90;99.90;;;;;;4995133;28;21016;-82
2024/03/09 04:18:28;;;;;;;32.43;16.30;;;3.90;99.90;;;;;;4995690;28;20458;-82
2024/03/09 04:20:56;;;;;;;26.93;15.27;;;3.80;99.90;;;;;;4997554;28;20468;-81
2024/03/09 04:23:23;;;;;;;34.20;16.10;;;3.90;99.90;;;;;;5010363;28;20467;-82
2024/03/09 04:25:52;;;;;;;25.17;15.60;;;3.90;99.90;;;;;;5004939;28;20584;-82
2024/03/09 04:28:21;;;;;;;27.10;16.37;;;3.90;99.90;;;;;;5001723;28;20551;-80
2024/03/09 04:30:49;;;;;;;34.63;16.50;;;3.80;99.90;;;;;;4994449;28;20520;-82
2024/03/09 04:33:16;;;;;;;32.67;15.80;;;3.80;99.90;;;;;;5007862;28;20457;-82
2024/03/09 04:35:43;;;;;;;33.67;15.97;;;3.80;99.90;;;;;;4999100;28;20487;-81
2024/03/09 04:38:10;;;;;;;32.27;15.30;;;3.70;99.90;;;;;;5002381;28;20465;-83
2024/03/09 04:40:37;;;;;;;35.60;17.43;;;3.70;99.90;;;;;;4996268;28;20565;-83
2024/03/09 04:43:05;;;;;;;35.60;16.10;;;3.60;99.90;;;;;;5006494;28;20844;-83
2024/03/09 04:45:35;;;;;;;39.27;16.90;;;3.60;99.90;;;;;;5013630;28;20450;-82
2024/03/09 04:48:04;;;;;;;34.17;17.77;;;3.50;99.90;;;;;;5010673;28;21022;-82
2024/03/09 04:50:33;;;;;;;33.40;17.10;;;3.50;99.90;;;;;;5010885;28;20492;-81
2024/03/09 04:53:00;;;;;;;40.40;19.20;;;3.40;99.90;;;;;;4994917;28;20464;-83
2024/03/09 04:55:30;;;;;;;40.10;17.03;;;3.40;99.90;;;;;;4994182;28;20570;-82
2024/03/09 04:57:57;;;;;;;35.40;16.20;;;3.40;99.90;;;;;;5010865;28;20457;-81
2024/03/09 05:00:28;;;;;;;36.07;15.97;;;3.30;99.90;;;;;;5009525;28;20546;-83
2024/03/09 05:02:57;;;;;;;31.87;15.80;;;3.30;99.90;;;;;;4998382;28;20522;-82
2024/03/09 05:05:29;;;;;;;30.63;16.53;;;3.30;99.90;;;;;;5001702;28;20597;-81
2024/03/09 05:07:55;;;;;;;33.87;16.30;;;3.20;99.90;;;;;;5002692;28;21186;-81
2024/03/09 05:10:23;;;;;;;37.10;16.93;;;3.20;99.90;;;;;;4993925;28;20466;-82
2024/03/09 05:12:53;;;;;;;33.67;15.33;;;3.20;99.90;;;;;;4994017;28;20462;-82
2024/03/09 05:15:22;;;;;;;31.43;13.80;;;3.10;99.90;;;;;;4994526;28;20543;-83
2024/03/09 05:17:49;;;;;;;29.37;15.73;;;3.10;99.90;;;;;;5000299;28;22208;-82
2024/03/09 05:20:22;;;;;;;30.73;13.73;;;3.10;99.90;;;;;;5002204;28;20829;-83
2024/03/09 05:22:49;;;;;;;30.47;15.23;;;3.10;99.90;;;;;;4993928;28;20499;-83
2024/03/09 05:25:17;;;;;;;27.07;14.40;;;3.00;99.90;;;;;;4994302;28;20562;-82
2024/03/09 05:27:44;;;;;;;24.67;13.40;;;3.00;99.90;;;;;;5010067;28;20482;-82
2024/03/09 05:30:16;;;;;;;26.70;15.00;;;3.00;99.90;;;;;;4994002;28;20480;-83
2024/03/09 05:32:49;;;;;;;29.80;16.30;;;3.00;99.90;;;;;;4994150;28;21030;-82
2024/03/09 05:35:20;;;;;;;26.73;14.37;;;2.90;99.90;;;;;;5008459;28;20994;-82
2024/03/09 05:37:50;;;;;;;26.23;14.07;;;2.90;99.90;;;;;;5010472;28;20938;-82
2024/03/09 05:40:19;;;;;;;30.13;14.70;;;2.90;99.90;;;;;;5005778;28;20943;-83
2024/03/09 05:42:49;;;;;;;27.33;13.83;;;2.90;99.90;;;;;;5004886;28;20516;-82
2024/03/09 05:45:20;;;;;;;30.97;14.20;;;2.90;99.90;;;;;;5009173;28;21009;-82
2024/03/09 05:47:48;;;;;;;27.13;13.17;;;2.90;99.90;;;;;;4996577;28;20462;-83
2024/03/09 05:50:15;;;;;;;29.10;16.40;;;2.90;99.90;;;;;;4999247;28;20451;-83
2024/03/09 05:52:44;;;;;;;25.80;14.60;;;2.90;99.90;;;;;;5001656;28;20467;-83
2024/03/09 05:55:11;;;;;;;30.00;14.63;;;2.90;99.90;;;;;;5014013;28;20490;-83
2024/03/09 05:57:39;;;;;;;25.70;14.43;;;2.90;99.90;;;;;;5009307;28;20795;-81
2024/03/09 06:00:08;;;;;;;28.33;13.17;;;2.90;99.90;;;;;;4999998;28;20509;-82
2024/03/09 06:02:39;;;;;;;26.70;14.60;;;2.90;99.90;;;;;;5002428;28;20508;-82
2024/03/09 06:05:07;;;;;;;29.50;17.53;;;3.00;99.90;;;;;;5008409;28;20505;-81
2024/03/09 06:07:37;;;;;;;25.87;14.50;;;2.90;99.90;;;;;;5010386;28;20959;-82
2024/03/09 06:10:07;;;;;;;25.53;14.43;;;3.00;99.90;;;;;;5009736;28;20456;-81
2024/03/09 06:12:34;;;;;;;27.67;13.60;;;3.00;99.90;;;;;;5010872;28;20525;-81
2024/03/09 06:15:01;;;;;;;28.93;14.90;;;3.00;99.90;;;;;;5005638;28;20472;-81
2024/03/09 06:17:29;;;;;;;29.60;14.40;;;3.10;99.90;;;;;;5002641;28;20988;-82
2024/03/09 06:19:58;;;;;;;29.57;16.10;;;3.10;99.90;;;;;;5002339;28;20501;-79
2024/03/09 06:22:25;;;;;;;29.03;15.47;;;3.20;99.90;;;;;;5007884;28;20510;-80
2024/03/09 06:24:52;;;;;;;29.57;13.73;;;3.30;99.90;;;;;;5010613;28;21050;-80
2024/03/09 06:27:20;;;;;;;29.00;14.10;;;3.40;99.90;;;;;;5006427;28;20464;-80
2024/03/09 06:29:49;;;;;;;26.63;13.77;;;3.40;99.90;;;;;;5009274;28;20454;-82
2024/03/09 06:32:16;;;;;;;29.63;14.17;;;3.50;99.90;;;;;;5006448;28;20413;-82
2024/03/09 06:34:43;;;;;;;25.20;13.33;;;3.50;99.90;;;;;;5008351;28;20468;-81
2024/03/09 06:37:12;;;;;;;26.40;13.60;;;3.60;99.90;;;;;;5011116;28;20539;-82
2024/03/09 06:39:42;;;;;;;30.63;14.97;;;3.70;99.90;;;;;;5007845;28;20953;-83
2024/03/09 06:42:09;;;;;;;30.53;14.93;;;3.70;99.90;;;;;;5007620;28;20485;-83
2024/03/09 06:44:37;;;;;;;27.90;14.60;;;3.80;99.90;;;;;;5016113;28;20946;-82
2024/03/09 06:47:05;;;;;;;31.27;15.20;;;4.00;99.90;;;;;;5002277;28;20507;-82
2024/03/09 06:49:31;;;;;;;27.00;13.00;;;4.10;99.90;;;;;;5007740;28;20454;-81
2024/03/09 06:52:00;;;;;;;25.37;13.80;;;4.10;99.90;;;;;;5008267;28;20447;-83
2024/03/09 06:54:26;;;;;;;29.40;14.93;;;4.30;99.90;;;;;;5007897;28;20473;-83
2024/03/09 06:56:53;;;;;;;26.37;14.77;;;4.40;99.90;;;;;;5008382;28;20453;-83
2024/03/09 06:59:23;;;;;;;31.40;17.20;;;4.40;99.90;;;;;;5005959;28;20555;-82
2024/03/09 07:01:56;;;;;;;27.07;14.27;;;4.50;99.90;;;;;;5012822;28;20492;-83
2024/03/09 07:04:24;;;;;;;24.87;13.00;;;4.60;99.90;;;;;;5010931;28;20472;-83
2024/03/09 07:06:51;;;;;;;30.30;14.33;;;4.70;99.90;;;;;;5008704;28;20552;-83
2024/03/09 07:09:19;;;;;;;27.37;13.50;;;4.80;99.90;;;;;;5009959;28;20974;-82
2024/03/09 07:11:46;;;;;;;24.57;13.97;;;4.90;99.90;;;;;;5012271;28;20496;-81
2024/03/09 07:14:13;;;;;;;24.33;13.27;;;5.00;99.90;;;;;;5006171;28;20507;-82
2024/03/09 07:16:40;;;;;;;24.23;14.03;;;5.10;99.90;;;;;;5007955;28;20461;-82
2024/03/09 07:19:10;;;;;;;29.77;15.87;;;5.20;99.90;;;;;;5009267;28;20987;-81
2024/03/09 07:21:40;;;;;;;31.63;15.93;;;5.20;99.90;;;;;;5017044;28;20507;-82
2024/03/09 07:24:07;;;;;;;25.03;14.57;;;5.40;99.90;;;;;;5004216;28;20501;-81
2024/03/09 07:26:36;;;;;;;28.60;14.40;;;5.40;99.90;;;;;;5005660;28;20468;-82
2024/03/09 07:29:03;;;;;;;24.97;14.00;;;5.60;99.90;;;;;;5002010;28;20454;-82
2024/03/09 07:31:30;;;;;;;28.27;14.57;;;5.70;99.90;;;;;;4997138;28;20538;-81
2024/03/09 07:33:57;;;;;;;24.17;13.70;;;6.00;99.90;;;;;;5007073;28;20493;-82
2024/03/09 07:36:26;;;;;;;24.97;12.60;;;6.00;99.90;;;;;;5009314;28;20574;-82
2024/03/09 07:38:54;;;;;;;24.53;12.97;;;6.10;99.90;;;;;;4999978;28;20454;-82
2024/03/09 07:41:22;;;;;;;24.93;13.67;;;6.30;99.90;;;;;;4996147;28;20479;-82
2024/03/09 07:43:51;;;;;;;25.40;15.93;;;6.50;99.90;;;;;;5005176;28;20451;-83
2024/03/09 07:46:21;;;;;;;24.20;14.37;;;6.60;99.90;;;;;;5007268;28;21049;-82
2024/03/09 07:48:50;;;;;;;24.93;13.70;;;6.70;99.90;;;;;;5011756;28;20908;-80
2024/03/09 07:51:17;;;;;;;25.23;13.50;;;6.80;99.90;;;;;;5009723;28;20466;-83
2024/03/09 07:53:45;;;;;;;27.30;13.87;;;7.00;99.90;;;;;;4999643;28;20974;-82
2024/03/09 07:56:12;;;;;;;25.87;14.20;;;7.10;99.90;;;;;;5018769;28;20483;-81
2024/03/09 07:58:39;;;;;;;26.97;13.20;;;7.20;99.90;;;;;;5003054;28;20458;-82
2024/03/09 08:01:07;;;;;;;25.10;14.50;;;7.30;99.90;;;;;;5002247;28;20492;-82
2024/03/09 08:03:34;;;;;;;23.07;13.33;;;7.30;99.90;;;;;;5008190;28;20877;-83
2024/03/09 08:06:03;;;;;;;23.60;13.60;;;7.40;99.90;;;;;;5004859;28;20481;-82
2024/03/09 08:08:30;;;;;;;26.53;12.90;;;7.40;99.90;;;;;;5003348;28;20520;-83
2024/03/09 08:10:58;;;;;;;27.00;13.63;;;7.60;99.90;;;;;;5009791;28;20485;-83
2024/03/09 08:13:25;;;;;;;25.60;15.30;;;7.80;99.90;;;;;;5012999;28;20462;-82
2024/03/09 08:15:53;;;;;;;21.70;13.00;;;8.00;99.90;;;;;;5003111;28;20980;-81
2024/03/09 08:18:21;;;;;;;26.70;13.20;;;8.00;99.90;;;;;;5008412;28;20459;-82
2024/03/09 08:20:49;;;;;;;23.20;12.93;;;8.00;99.90;;;;;;5002022;28;20496;-82
2024/03/09 08:23:17;;;;;;;27.57;13.47;;;8.10;99.90;;;;;;5003456;28;20613;-82
2024/03/09 08:25:44;;;;;;;28.70;13.60;;;8.10;99.90;;;;;;4997854;28;20550;-81
2024/03/09 08:28:13;;;;;;;22.20;11.60;;;8.10;99.90;;;;;;4997955;28;20466;-82
2024/03/09 08:30:40;;;;;;;21.97;12.10;;;8.20;99.90;;;;;;4998755;28;20462;-82
2024/03/09 08:33:09;;;;;;;24.70;13.63;;;8.30;99.90;;;;;;4998042;28;20463;-81
2024/03/09 08:35:36;;;;;;;24.33;14.30;;;8.40;99.90;;;;;;5006790;28;20491;-82
2024/03/09 08:38:03;;;;;;;25.07;12.80;;;8.50;99.90;;;;;;5018798;28;20468;-82
2024/03/09 08:40:32;;;;;;;22.87;12.50;;;8.60;99.90;;;;;;5017979;28;20456;-81
2024/03/09 08:42:59;;;;;;;23.23;12.77;;;8.60;99.90;;;;;;5016962;28;20517;-82
2024/03/09 08:45:34;;;;;;;23.70;12.23;;;8.80;99.90;;;;;;5019249;28;20471;-81
2024/03/09 08:48:03;;;;;;;27.07;14.43;;;9.00;99.90;;;;;;5006953;28;20997;-82
2024/03/09 08:50:34;;;;;;;23.47;12.53;;;9.00;99.90;;;;;;4999423;28;20459;-81
2024/03/09 08:53:01;;;;;;;23.43;11.47;;;9.10;99.90;;;;;;5000128;28;20466;-84
2024/03/09 08:55:28;;;;;;;28.00;13.33;;;9.30;99.90;;;;;;4998087;28;20920;-82
2024/03/09 08:57:55;;;;;;;24.93;13.87;;;9.50;99.90;;;;;;5011806;28;20461;-81
2024/03/09 09:00:24;;;;;;;23.20;10.70;;;9.80;99.90;;;;;;5016528;28;20454;-82
2024/03/09 09:02:53;;;;;;;21.77;12.60;;;10.10;99.90;;;;;;5016442;28;20505;-81
2024/03/09 09:05:21;;;;;;;20.43;10.40;;;10.60;99.90;;;;;;5017457;28;20481;-82
2024/03/09 09:07:48;;;;;;;26.10;11.00;;;10.80;99.90;;;;;;5015394;28;20478;-83
2024/03/09 09:10:16;;;;;;;21.43;10.83;;;10.80;99.90;;;;;;5000975;28;20458;-82
2024/03/09 09:12:44;;;;;;;22.43;10.97;;;11.40;99.90;;;;;;4999952;28;20467;-81
2024/03/09 09:15:12;;;;;;;18.40;9.47;;;12.20;99.90;;;;;;4997633;28;20543;-82
2024/03/09 09:17:40;;;;;;;18.60;10.60;;;13.20;99.90;;;;;;5015069;28;20457;-83
2024/03/09 09:20:11;;;;;;;20.17;11.10;;;14.10;99.90;;;;;;4997631;28;20493;-81
2024/03/09 09:22:38;;;;;;;21.53;11.33;;;14.80;99.90;;;;;;4996897;28;20574;-82
2024/03/09 09:25:06;;;;;;;18.53;10.00;;;14.90;97.90;;;;;;4997758;28;20479;-81
2024/03/09 09:27:34;;;;;;;20.73;12.33;;;15.10;95.60;;;;;;5015202;28;20829;-82
2024/03/09 09:30:02;;;;;;;19.80;11.37;;;15.50;94.60;;;;;;4997729;28;20451;-82
2024/03/09 09:32:29;;;;;;;22.60;11.43;;;16.10;94.00;;;;;;4998698;28;20453;-83
2024/03/09 09:34:55;;;;;;;22.10;11.43;;;16.50;92.00;;;;;;4999165;28;20553;-82
2024/03/09 09:37:25;;;;;;;20.23;11.00;;;17.60;90.30;;;;;;5000708;28;20458;-81
2024/03/09 09:39:52;;;;;;;23.70;11.80;;;18.40;86.40;;;;;;5003215;28;20489;-84
2024/03/09 09:42:19;;;;;;;20.10;11.07;;;19.20;84.90;;;;;;5004797;28;20512;-81
2024/03/09 09:44:46;;;;;;;19.10;11.40;;;19.70;82.60;;;;;;5006761;28;20503;-82
2024/03/09 09:47:14;;;;;;;20.40;10.57;;;19.30;77.20;;;;;;5006487;28;20553;-84
2024/03/09 09:49:42;;;;;;;20.03;10.37;;;19.20;76.70;;;;;;4998528;28;20468;-83
2024/03/09 09:52:09;;;;;;;19.27;10.87;;;19.40;78.10;;;;;;4998174;28;20467;-83
2024/03/09 09:54:41;;;;;;;20.23;11.67;;;19.10;76.70;;;;;;4999013;28;20480;-83
2024/03/09 09:57:10;;;;;;;18.93;11.10;;;18.50;76.60;;;;;;5000096;28;20495;-83
2024/03/09 09:59:37;;;;;;;19.90;10.67;;;18.80;75.80;;;;;;5000911;28;20455;-82
2024/03/09 10:02:04;;;;;;;20.87;11.60;;;18.60;76.10;;;;;;4997567;28;20445;-82
2024/03/09 10:04:32;;;;;;;20.83;11.93;;;19.10;77.10;;;;;;4997086;28;20484;-81
2024/03/09 10:07:07;;;;;;;18.27;10.17;;;19.70;76.50;;;;;;4997562;28;20973;-82
2024/03/09 10:09:35;;;;;;;18.43;11.73;;;20.30;73.90;;;;;;4996024;28;20468;-83
2024/03/09 10:12:03;;;;;;;19.20;11.10;;;20.70;71.40;;;;;;4996319;28;20542;-82
2024/03/09 10:14:31;;;;;;;20.73;12.07;;;20.80;71.70;;;;;;4996388;28;20474;-82
2024/03/09 10:17:02;;;;;;;20.33;11.23;;;21.60;70.00;;;;;;4996526;28;20585;-83
2024/03/09 10:19:30;;;;;;;20.63;12.30;;;22.20;68.80;;;;;;4999081;28;20465;-84
2024/03/09 10:21:57;;;;;;;20.40;12.40;;;22.70;67.40;;;;;;5002898;28;20490;-83
2024/03/09 10:24:24;;;;;;;18.00;11.80;;;23.10;65.80;;;;;;5016909;28;20548;-82
2024/03/09 10:26:51;;;;;;;17.37;10.40;;;23.80;64.60;;;;;;5008548;28;20465;-83
2024/03/09 10:29:21;;;;;;;17.50;11.77;;;24.70;63.10;;;;;;5011718;28;20512;-84
2024/03/09 10:31:50;;;;;;;17.83;11.33;;;25.50;61.00;;;;;;4999219;28;20451;-82
2024/03/09 10:34:17;;;;;;;21.03;13.27;;;26.10;59.30;;;;;;4998725;28;21078;-83
2024/03/09 10:36:46;;;;;;;19.37;12.43;;;26.50;58.10;;;;;;4999823;28;20557;-81
2024/03/09 10:39:19;;;;;;;17.00;11.20;;;26.60;58.10;;;;;;4999424;28;20451;-83
2024/03/09 10:41:50;;;;;;;18.30;12.17;;;27.50;57.20;;;;;;4999454;28;20485;-82
2024/03/09 10:44:19;;;;;;;16.07;11.70;;;28.30;57.90;;;;;;4998862;28;20502;-84
2024/03/09 10:46:50;;;;;;;16.63;11.13;;;28.20;54.70;;;;;;4997997;28;20450;-83
2024/03/09 10:49:21;;;;;;;18.80;13.07;;;28.20;53.40;;;;;;4998954;28;20896;-83
2024/03/09 10:51:52;;;;;;;18.73;12.70;;;28.90;54.00;;;;;;5015575;28;20476;-82
2024/03/09 10:54:23;;;;;;;17.97;12.73;;;29.50;52.90;;;;;;5001001;28;20525;-83
2024/03/09 10:56:51;;;;;;;21.13;14.57;;;29.00;51.70;;;;;;5017631;28;20527;-84
2024/03/09 10:59:21;;;;;;;18.40;13.00;;;26.70;50.30;;;;;;5013459;28;20469;-81
2024/03/09 11:01:52;;;;;;;18.07;12.30;;;27.70;52.70;;;;;;4999971;28;20458;-83
2024/03/09 11:04:20;;;;;;;16.60;10.80;;;28.00;52.90;;;;;;5002529;28;20570;-82
2024/03/09 11:06:47;;;;;;;17.20;11.70;;;28.90;52.70;;;;;;5001248;28;20462;-83
2024/03/09 11:09:16;;;;;;;18.40;13.20;;;28.50;50.20;;;;;;5002454;28;20518;-84
2024/03/09 11:11:45;;;;;;;16.00;11.43;;;29.10;50.30;;;;;;5001481;28;20464;-82
2024/03/09 11:14:15;;;;;;;21.50;13.97;;;29.80;50.20;;;;;;5019042;28;20461;-84
2024/03/09 11:16:42;;;;;;;16.17;11.33;;;29.50;50.90;;;;;;5021943;28;20920;-84
2024/03/09 11:19:14;;;;;;;19.70;13.13;;;30.10;48.50;;;;;;5020917;28;20537;-83
2024/03/09 11:21:41;;;;;;;16.80;12.40;;;30.40;50.50;;;;;;5020783;28;20512;-84
2024/03/09 11:24:11;;;;;;;17.60;12.27;;;30.90;47.80;;;;;;5020598;28;20568;-83
2024/03/09 11:26:40;;;;;;;15.67;11.93;;;31.00;47.90;;;;;;5001471;28;20569;-83
2024/03/09 11:29:10;;;;;;;19.03;13.73;;;30.90;48.40;;;;;;5013366;28;20502;-82
2024/03/09 11:31:41;;;;;;;16.83;12.20;;;30.20;48.10;;;;;;5020653;28;20480;-83
2024/03/09 11:34:21;;;;;;;21.03;11.07;;;29.80;47.70;;;;;;5017899;28;20458;-82
2024/03/09 11:36:51;;;;;;;16.03;10.47;;;29.90;48.50;;;;;;5019391;28;20481;-84
2024/03/09 11:39:20;;;;;;;16.70;11.70;;;30.60;48.50;;;;;;5022461;28;20457;-83
2024/03/09 11:41:48;;;;;;;18.40;11.87;;;30.40;47.30;;;;;;5030556;28;20485;-84
2024/03/09 11:44:20;;;;;;;13.47;10.40;;;31.30;47.90;;;;;;5012452;28;20491;-84
2024/03/09 11:46:47;;;;;;;14.90;10.77;;;31.30;48.20;;;;;;5031322;28;20461;-84
2024/03/09 11:49:16;;;;;;;17.37;9.83;;;31.30;46.40;;;;;;5020687;28;20459;-84
2024/03/09 11:51:43;;;;;;;15.33;9.93;;;;;;;;;;5013755;28;20454;-82
2024/03/09 11:54:12;;;;;;;15.90;11.37;;;31.20;45.60;;;;;;5021758;28;20446;-83
2024/03/09 11:56:40;;;;;;;15.43;10.40;;;29.90;46.40;;;;;;5012662;28;20469;-84
2024/03/09 11:59:21;;;;;;;17.80;10.63;;;30.60;46.30;;;;;;5012866;28;20502;-85
2024/03/09 12:01:50;;;;;;;14.70;10.50;;;;;;;;;;5015567;28;20461;-86
2024/03/09 12:04:18;;;;;;;18.20;11.50;;;30.80;46.90;;;;;;5015329;28;20500;-86
2024/03/09 12:06:48;;;;;;;15.00;10.27;;;30.40;47.10;;;;;;5016012;28;20463;-85
2024/03/09 12:09:16;;;;;;;14.70;8.80;;;;;;;;;;5016273;28;20482;-86
2024/03/09 12:11:45;;;;;;;13.87;9.07;;;31.40;47.20;;;;;;5032536;28;20528;-86
2024/03/09 12:14:12;;;;;;;13.97;10.00;;;31.10;46.20;;;;;;5026957;28;20450;-85
2024/03/09 12:16:42;;;;;;;14.20;9.80;;;31.20;46.80;;;;;;5031676;28;20450;-85
2024/03/09 12:19:11;;;;;;;14.80;9.57;;;30.50;47.10;;;;;;5020150;28;20482;-83
2024/03/09 12:21:41;;;;;;;14.93;9.80;;;31.50;47.10;;;;;;5032093;28;20450;-84
2024/03/09 12:24:08;;;;;;;13.10;8.80;;;31.70;46.60;;;;;;5017069;28;20502;-83
2024/03/09 12:26:37;;;;;;;14.80;9.83;;;31.70;46.70;;;;;;5004968;28;20828;-85
2024/03/09 12:29:05;;;;;;;16.00;10.90;;;32.10;46.20;;;;;;5012636;28;20474;-85
2024/03/09 12:31:33;;;;;;;14.60;10.87;;;31.40;46.10;;;;;;5005417;28;20537;-86
2024/03/09 12:34:00;;;;;;;14.10;9.37;;;31.30;47.50;;;;;;5005707;28;20439;-85
2024/03/09 12:36:28;;;;;;;15.20;10.70;;;31.40;45.90;;;;;;5005016;28;20458;-85
2024/03/09 12:39:09;;;;;;;14.70;9.97;;;31.50;45.80;;;;;;5004091;28;20455;-85
2024/03/09 12:41:37;;;;;;;14.53;10.30;;;32.50;47.60;;;;;;5005773;28;21046;-86